sensor_id;sensor_type;location;lat;lon;timestamp;temperature;humidity
64951;DHT22;51482;47.014;7.652;2023-06-10T00:01:45;19.70;99.90
64951;DHT22;51482;47.014;7.652;2023-06-10T00:04:15;19.70;99.90
64951;DHT22;51482;47.014;7.652;2023-06-10T00:06:43;19.70;99.90
64951;DHT22;51482;47.014;7.652;2023-06-10T00:09:09;19.60;99.90
64951;DHT22;51482;47.014;7.652;2023-06-10T00:11:39;19.70;99.90
64951;DHT22;51482;47.014;7.652;2023-06-10T00:14:05;19.60;99.90
64951;DHT22;51482;47.014;7.652;2023-06-10T00:16:30;19.60;99.90
64951;DHT22;51482;47.014;7.652;2023-06-10T00:18:56;19.60;99.90
64951;DHT22;51482;47.014;7.652;2023-06-10T00:21:33;20.10;99.90
64951;DHT22;51482;47.014;7.652;2023-06-10T00:24:08;19.70;99.90
64951;DHT22;51482;47.014;7.652;2023-06-10T00:26:41;19.70;99.90
64951;DHT22;51482;47.014;7.652;2023-06-10T00:29:07;19.70;99.90
64951;DHT22;51482;47.014;7.652;2023-06-10T00:31:35;19.50;99.90
64951;DHT22;51482;47.014;7.652;2023-06-10T00:34:01;19.50;99.90
64951;DHT22;51482;47.014;7.652;2023-06-10T00:36:27;20.10;99.90
64951;DHT22;51482;47.014;7.652;2023-06-10T00:38:53;19.70;99.90
64951;DHT22;51482;47.014;7.652;2023-06-10T00:41:19;19.80;99.90
64951;DHT22;51482;47.014;7.652;2023-06-10T00:43:44;19.50;99.90
64951;DHT22;51482;47.014;7.652;2023-06-10T00:46:11;19.50;99.90
64951;DHT22;51482;47.014;7.652;2023-06-10T00:48:38;19.40;99.90
64951;DHT22;51482;47.014;7.652;2023-06-10T00:51:05;19.40;99.90
64951;DHT22;51482;47.014;7.652;2023-06-10T00:53:32;19.40;99.90
64951;DHT22;51482;47.014;7.652;2023-06-10T00:55:58;19.50;99.90
64951;DHT22;51482;47.014;7.652;2023-06-10T00:58:24;19.50;99.90
64951;DHT22;51482;47.014;7.652;2023-06-10T01:00:51;19.20;99.90
64951;DHT22;51482;47.014;7.652;2023-06-10T01:03:17;19.10;99.90
64951;DHT22;51482;47.014;7.652;2023-06-10T01:05:43;19.00;99.90
64951;DHT22;51482;47.014;7.652;2023-06-10T01:08:28;19.00;99.90
64951;DHT22;51482;47.014;7.652;2023-06-10T01:11:01;19.10;99.90
64951;DHT22;51482;47.014;7.652;2023-06-10T01:13:29;19.10;99.90
64951;DHT22;51482;47.014;7.652;2023-06-10T01:15:57;19.10;99.90
64951;DHT22;51482;47.014;7.652;2023-06-10T01:18:23;19.10;99.90
64951;DHT22;51482;47.014;7.652;2023-06-10T01:20:49;19.60;99.90
64951;DHT22;51482;47.014;7.652;2023-06-10T01:23:15;19.10;99.90
64951;DHT22;51482;47.014;7.652;2023-06-10T01:25:57;19.00;99.90
64951;DHT22;51482;47.014;7.652;2023-06-10T01:28:44;19.00;99.90
64951;DHT22;51482;47.014;7.652;2023-06-10T01:31:38;18.90;99.90
64951;DHT22;51482;47.014;7.652;2023-06-10T01:34:10;18.90;99.90
64951;DHT22;51482;47.014;7.652;2023-06-10T01:36:37;19.30;99.90
64951;DHT22;51482;47.014;7.652;2023-06-10T01:39:04;18.80;99.90
64951;DHT22;51482;47.014;7.652;2023-06-10T01:41:31;18.80;99.90
64951;DHT22;51482;47.014;7.652;2023-06-10T01:43:57;19.30;99.90
64951;DHT22;51482;47.014;7.652;2023-06-10T01:46:22;19.30;99.90
64951;DHT22;51482;47.014;7.652;2023-06-10T01:48:48;19.80;99.90
64951;DHT22;51482;47.014;7.652;2023-06-10T01:51:14;19.20;99.90
64951;DHT22;51482;47.014;7.652;2023-06-10T01:53:39;18.70;99.90
64951;DHT22;51482;47.014;7.652;2023-06-10T01:56:05;18.70;99.90
64951;DHT22;51482;47.014;7.652;2023-06-10T01:58:30;19.30;99.90
64951;DHT22;51482;47.014;7.652;2023-06-10T02:00:56;18.80;99.90
64951;DHT22;51482;47.014;7.652;2023-06-10T02:03:22;19.40;99.90
64951;DHT22;51482;47.014;7.652;2023-06-10T02:05:47;19.30;99.90
64951;DHT22;51482;47.014;7.652;2023-06-10T02:08:13;19.30;99.90
64951;DHT22;51482;47.014;7.652;2023-06-10T02:10:38;18.80;99.90
64951;DHT22;51482;47.014;7.652;2023-06-10T02:13:05;18.90;99.90
64951;DHT22;51482;47.014;7.652;2023-06-10T02:15:30;19.40;99.90
64951;DHT22;51482;47.014;7.652;2023-06-10T02:17:56;19.00;99.90
64951;DHT22;51482;47.014;7.652;2023-06-10T02:20:23;19.40;99.90
64951;DHT22;51482;47.014;7.652;2023-06-10T02:22:48;19.60;99.90
64951;DHT22;51482;47.014;7.652;2023-06-10T02:25:14;19.20;99.90
64951;DHT22;51482;47.014;7.652;2023-06-10T02:27:39;19.20;99.90
64951;DHT22;51482;47.014;7.652;2023-06-10T02:30:06;19.20;99.90
64951;DHT22;51482;47.014;7.652;2023-06-10T02:32:31;19.10;99.90
64951;DHT22;51482;47.014;7.652;2023-06-10T02:34:57;19.20;99.90
64951;DHT22;51482;47.014;7.652;2023-06-10T02:37:23;19.10;99.90
64951;DHT22;51482;47.014;7.652;2023-06-10T02:39:48;19.10;99.90
64951;DHT22;51482;47.014;7.652;2023-06-10T02:42:14;19.10;99.90
64951;DHT22;51482;47.014;7.652;2023-06-10T02:44:39;19.10;99.90
64951;DHT22;51482;47.014;7.652;2023-06-10T02:47:05;19.10;99.90
64951;DHT22;51482;47.014;7.652;2023-06-10T02:49:31;19.00;99.90
64951;DHT22;51482;47.014;7.652;2023-06-10T02:51:56;19.10;99.90
64951;DHT22;51482;47.014;7.652;2023-06-10T02:54:23;19.00;99.90
64951;DHT22;51482;47.014;7.652;2023-06-10T02:56:49;19.10;99.90
64951;DHT22;51482;47.014;7.652;2023-06-10T02:59:15;19.10;99.90
64951;DHT22;51482;47.014;7.652;2023-06-10T03:01:41;19.10;99.90
64951;DHT22;51482;47.014;7.652;2023-06-10T03:04:07;19.10;99.90
64951;DHT22;51482;47.014;7.652;2023-06-10T03:06:33;19.10;99.90
64951;DHT22;51482;47.014;7.652;2023-06-10T03:09:03;19.10;99.90
64951;DHT22;51482;47.014;7.652;2023-06-10T03:11:29;19.00;99.90
64951;DHT22;51482;47.014;7.652;2023-06-10T03:13:55;19.00;99.90
64951;DHT22;51482;47.014;7.652;2023-06-10T03:16:21;19.20;99.90
64951;DHT22;51482;47.014;7.652;2023-06-10T03:18:46;18.90;99.90
64951;DHT22;51482;47.014;7.652;2023-06-10T03:21:12;18.90;99.90
64951;DHT22;51482;47.014;7.652;2023-06-10T03:23:38;19.00;99.90
64951;DHT22;51482;47.014;7.652;2023-06-10T03:26:04;18.90;99.90
64951;DHT22;51482;47.014;7.652;2023-06-10T03:28:30;19.50;99.90
64951;DHT22;51482;47.014;7.652;2023-06-10T03:30:56;18.90;99.90
64951;DHT22;51482;47.014;7.652;2023-06-10T03:33:22;18.90;99.90
64951;DHT22;51482;47.014;7.652;2023-06-10T03:35:48;18.80;99.90
64951;DHT22;51482;47.014;7.652;2023-06-10T03:38:13;18.80;99.90
64951;DHT22;51482;47.014;7.652;2023-06-10T03:40:39;18.80;99.90
64951;DHT22;51482;47.014;7.652;2023-06-10T03:43:08;18.90;99.90
64951;DHT22;51482;47.014;7.652;2023-06-10T03:45:34;18.80;99.90
64951;DHT22;51482;47.014;7.652;2023-06-10T03:48:00;18.90;99.90
64951;DHT22;51482;47.014;7.652;2023-06-10T03:50:26;18.80;99.90
64951;DHT22;51482;47.014;7.652;2023-06-10T03:52:52;18.90;99.90
64951;DHT22;51482;47.014;7.652;2023-06-10T03:55:17;19.40;99.90
64951;DHT22;51482;47.014;7.652;2023-06-10T03:57:43;18.90;99.90
64951;DHT22;51482;47.014;7.652;2023-06-10T04:00:09;18.70;99.90
64951;DHT22;51482;47.014;7.652;2023-06-10T04:02:37;18.70;99.90
64951;DHT22;51482;47.014;7.652;2023-06-10T04:05:03;18.70;99.90
64951;DHT22;51482;47.014;7.652;2023-06-10T04:07:29;18.80;99.90
64951;DHT22;51482;47.014;7.652;2023-06-10T04:09:56;18.70;99.90
64951;DHT22;51482;47.014;7.652;2023-06-10T04:12:21;18.80;99.90
64951;DHT22;51482;47.014;7.652;2023-06-10T04:14:47;18.90;99.90
64951;DHT22;51482;47.014;7.652;2023-06-10T04:17:12;18.90;99.90
64951;DHT22;51482;47.014;7.652;2023-06-10T04:19:38;18.90;99.90
64951;DHT22;51482;47.014;7.652;2023-06-10T04:22:04;19.00;99.90
64951;DHT22;51482;47.014;7.652;2023-06-10T04:24:30;18.90;99.90
64951;DHT22;51482;47.014;7.652;2023-06-10T04:26:56;18.90;99.90
64951;DHT22;51482;47.014;7.652;2023-06-10T04:29:21;18.90;99.90
64951;DHT22;51482;47.014;7.652;2023-06-10T04:31:47;18.90;99.90
64951;DHT22;51482;47.014;7.652;2023-06-10T04:34:13;18.90;99.90
64951;DHT22;51482;47.014;7.652;2023-06-10T04:36:39;19.30;99.90
64951;DHT22;51482;47.014;7.652;2023-06-10T04:39:05;19.00;99.90
64951;DHT22;51482;47.014;7.652;2023-06-10T04:41:33;18.90;99.90
64951;DHT22;51482;47.014;7.652;2023-06-10T04:44:01;18.90;99.90
64951;DHT22;51482;47.014;7.652;2023-06-10T04:46:27;18.90;99.90
64951;DHT22;51482;47.014;7.652;2023-06-10T04:48:53;18.90;99.90
64951;DHT22;51482;47.014;7.652;2023-06-10T04:51:19;19.00;99.90
64951;DHT22;51482;47.014;7.652;2023-06-10T04:53:45;19.00;99.90
64951;DHT22;51482;47.014;7.652;2023-06-10T04:56:11;19.30;99.90
64951;DHT22;51482;47.014;7.652;2023-06-10T04:58:36;19.10;99.90
64951;DHT22;51482;47.014;7.652;2023-06-10T05:01:02;19.30;99.90
64951;DHT22;51482;47.014;7.652;2023-06-10T05:03:28;19.10;99.90
64951;DHT22;51482;47.014;7.652;2023-06-10T05:05:53;19.40;99.90
64951;DHT22;51482;47.014;7.652;2023-06-10T05:08:19;19.20;99.90
64951;DHT22;51482;47.014;7.652;2023-06-10T05:10:45;19.40;99.90
64951;DHT22;51482;47.014;7.652;2023-06-10T05:13:10;19.40;99.90
64951;DHT22;51482;47.014;7.652;2023-06-10T05:15:36;19.50;99.90
64951;DHT22;51482;47.014;7.652;2023-06-10T05:18:02;20.10;99.90
64951;DHT22;51482;47.014;7.652;2023-06-10T05:20:28;19.70;99.90
64951;DHT22;51482;47.014;7.652;2023-06-10T05:22:54;19.80;99.90
64951;DHT22;51482;47.014;7.652;2023-06-10T05:25:19;19.90;99.90
64951;DHT22;51482;47.014;7.652;2023-06-10T05:27:45;20.00;99.90
64951;DHT22;51482;47.014;7.652;2023-06-10T05:30:11;20.10;99.90
64951;DHT22;51482;47.014;7.652;2023-06-10T05:32:37;20.10;99.90
64951;DHT22;51482;47.014;7.652;2023-06-10T05:35:02;20.20;99.90
64951;DHT22;51482;47.014;7.652;2023-06-10T05:37:30;20.20;99.90
64951;DHT22;51482;47.014;7.652;2023-06-10T05:39:55;20.30;99.90
64951;DHT22;51482;47.014;7.652;2023-06-10T05:42:21;20.80;99.90
64951;DHT22;51482;47.014;7.652;2023-06-10T05:44:46;20.60;99.90
64951;DHT22;51482;47.014;7.652;2023-06-10T05:47:12;20.60;99.90
64951;DHT22;51482;47.014;7.652;2023-06-10T05:49:37;21.20;99.90
64951;DHT22;51482;47.014;7.652;2023-06-10T05:52:03;20.60;99.90
64951;DHT22;51482;47.014;7.652;2023-06-10T05:54:29;20.70;99.90
64951;DHT22;51482;47.014;7.652;2023-06-10T05:56:54;21.00;99.90
64951;DHT22;51482;47.014;7.652;2023-06-10T05:59:20;20.70;99.90
64951;DHT22;51482;47.014;7.652;2023-06-10T06:01:48;20.60;99.90
64951;DHT22;51482;47.014;7.652;2023-06-10T06:04:14;20.80;99.90
64951;DHT22;51482;47.014;7.652;2023-06-10T06:06:39;20.70;99.90
64951;DHT22;51482;47.014;7.652;2023-06-10T06:09:06;20.70;99.90
64951;DHT22;51482;47.014;7.652;2023-06-10T06:11:33;20.60;99.90
64951;DHT22;51482;47.014;7.652;2023-06-10T06:13:58;20.70;99.90
64951;DHT22;51482;47.014;7.652;2023-06-10T06:16:24;20.70;99.90
64951;DHT22;51482;47.014;7.652;2023-06-10T06:18:49;20.70;99.90
64951;DHT22;51482;47.014;7.652;2023-06-10T06:21:15;20.80;99.90
64951;DHT22;51482;47.014;7.652;2023-06-10T06:23:40;21.20;99.90
64951;DHT22;51482;47.014;7.652;2023-06-10T06:26:06;21.50;99.90
64951;DHT22;51482;47.014;7.652;2023-06-10T06:28:31;21.10;99.90
64951;DHT22;51482;47.014;7.652;2023-06-10T06:30:57;21.70;99.90
64951;DHT22;51482;47.014;7.652;2023-06-10T06:33:23;21.10;99.90
64951;DHT22;51482;47.014;7.652;2023-06-10T06:35:48;21.50;99.90
64951;DHT22;51482;47.014;7.652;2023-06-10T06:38:14;21.10;99.90
64951;DHT22;51482;47.014;7.652;2023-06-10T06:40:40;21.20;99.90
64951;DHT22;51482;47.014;7.652;2023-06-10T06:43:05;21.30;99.90
64951;DHT22;51482;47.014;7.652;2023-06-10T06:45:31;21.30;99.90
64951;DHT22;51482;47.014;7.652;2023-06-10T06:47:59;21.40;99.90
64951;DHT22;51482;47.014;7.652;2023-06-10T06:50:25;21.50;99.90
64951;DHT22;51482;47.014;7.652;2023-06-10T06:52:50;21.50;99.90
64951;DHT22;51482;47.014;7.652;2023-06-10T06:55:16;21.90;99.90
64951;DHT22;51482;47.014;7.652;2023-06-10T06:57:41;21.80;99.90
64951;DHT22;51482;47.014;7.652;2023-06-10T07:00:07;21.70;99.90
64951;DHT22;51482;47.014;7.652;2023-06-10T07:02:35;21.00;99.90
64951;DHT22;51482;47.014;7.652;2023-06-10T07:05:01;21.60;99.90
64951;DHT22;51482;47.014;7.652;2023-06-10T07:07:27;21.50;99.90
64951;DHT22;51482;47.014;7.652;2023-06-10T07:09:52;21.50;99.90
64951;DHT22;51482;47.014;7.652;2023-06-10T07:12:18;21.90;99.90
64951;DHT22;51482;47.014;7.652;2023-06-10T07:14:44;21.50;99.90
64951;DHT22;51482;47.014;7.652;2023-06-10T07:17:09;21.60;99.90
64951;DHT22;51482;47.014;7.652;2023-06-10T07:19:35;21.70;99.90
64951;DHT22;51482;47.014;7.652;2023-06-10T07:22:00;21.40;99.90
64951;DHT22;51482;47.014;7.652;2023-06-10T07:24:26;21.50;99.90
64951;DHT22;51482;47.014;7.652;2023-06-10T07:26:51;21.50;99.90
64951;DHT22;51482;47.014;7.652;2023-06-10T07:29:17;21.70;99.90
64951;DHT22;51482;47.014;7.652;2023-06-10T07:31:43;21.60;99.90
64951;DHT22;51482;47.014;7.652;2023-06-10T07:34:08;21.60;99.90
64951;DHT22;51482;47.014;7.652;2023-06-10T07:36:34;21.30;99.90
64951;DHT22;51482;47.014;7.652;2023-06-10T07:38:59;21.60;99.90
64951;DHT22;51482;47.014;7.652;2023-06-10T07:41:25;21.70;99.90
64951;DHT22;51482;47.014;7.652;2023-06-10T07:43:53;21.20;99.90
64951;DHT22;51482;47.014;7.652;2023-06-10T07:46:21;21.70;99.90
64951;DHT22;51482;47.014;7.652;2023-06-10T07:48:47;21.10;99.90
64951;DHT22;51482;47.014;7.652;2023-06-10T07:51:12;22.20;99.90
64951;DHT22;51482;47.014;7.652;2023-06-10T07:53:38;21.60;99.90
64951;DHT22;51482;47.014;7.652;2023-06-10T07:56:03;21.60;99.90
64951;DHT22;51482;47.014;7.652;2023-06-10T07:58:29;21.60;99.90
64951;DHT22;51482;47.014;7.652;2023-06-10T08:00:55;21.70;99.90
64951;DHT22;51482;47.014;7.652;2023-06-10T08:03:20;21.70;99.90
64951;DHT22;51482;47.014;7.652;2023-06-10T08:05:46;22.40;99.90
64951;DHT22;51482;47.014;7.652;2023-06-10T08:08:13;21.90;99.90
64951;DHT22;51482;47.014;7.652;2023-06-10T08:10:38;22.40;99.90
64951;DHT22;51482;47.014;7.652;2023-06-10T08:13:04;22.40;99.90
64951;DHT22;51482;47.014;7.652;2023-06-10T08:15:30;22.50;99.90
64951;DHT22;51482;47.014;7.652;2023-06-10T08:17:55;22.30;99.90
64951;DHT22;51482;47.014;7.652;2023-06-10T08:20:22;22.20;99.90
64951;DHT22;51482;47.014;7.652;2023-06-10T08:22:47;22.40;99.90
64951;DHT22;51482;47.014;7.652;2023-06-10T08:25:13;22.50;99.90
64951;DHT22;51482;47.014;7.652;2023-06-10T08:27:38;22.10;99.90
64951;DHT22;51482;47.014;7.652;2023-06-10T08:30:04;22.60;99.90
64951;DHT22;51482;47.014;7.652;2023-06-10T08:32:30;22.20;99.90
64951;DHT22;51482;47.014;7.652;2023-06-10T08:34:56;21.90;99.90
64951;DHT22;51482;47.014;7.652;2023-06-10T08:37:21;22.60;99.90
64951;DHT22;51482;47.014;7.652;2023-06-10T08:39:47;22.50;99.90
64951;DHT22;51482;47.014;7.652;2023-06-10T08:45:01;22.80;99.90
64951;DHT22;51482;47.014;7.652;2023-06-10T08:47:29;22.40;99.90
64951;DHT22;51482;47.014;7.652;2023-06-10T08:49:57;22.80;99.90
64951;DHT22;51482;47.014;7.652;2023-06-10T08:52:29;22.60;99.90
64951;DHT22;51482;47.014;7.652;2023-06-10T08:55:09;23.40;99.90
64951;DHT22;51482;47.014;7.652;2023-06-10T08:57:36;22.80;99.90
64951;DHT22;51482;47.014;7.652;2023-06-10T09:00:03;23.50;99.90
64951;DHT22;51482;47.014;7.652;2023-06-10T09:02:28;22.80;99.90
64951;DHT22;51482;47.014;7.652;2023-06-10T09:04:56;23.30;99.90
64951;DHT22;51482;47.014;7.652;2023-06-10T09:07:22;23.10;99.90
64951;DHT22;51482;47.014;7.652;2023-06-10T09:09:49;23.10;99.90
64951;DHT22;51482;47.014;7.652;2023-06-10T09:12:15;23.60;99.90
64951;DHT22;51482;47.014;7.652;2023-06-10T09:14:44;23.10;99.90
64951;DHT22;51482;47.014;7.652;2023-06-10T09:17:10;23.30;99.90
64951;DHT22;51482;47.014;7.652;2023-06-10T09:19:36;24.00;99.90
64951;DHT22;51482;47.014;7.652;2023-06-10T09:22:03;23.70;99.90
64951;DHT22;51482;47.014;7.652;2023-06-10T09:24:29;23.70;99.90
64951;DHT22;51482;47.014;7.652;2023-06-10T09:27:05;23.80;99.90
64951;DHT22;51482;47.014;7.652;2023-06-10T09:29:42;24.10;99.90
64951;DHT22;51482;47.014;7.652;2023-06-10T09:32:10;24.40;99.90
64951;DHT22;51482;47.014;7.652;2023-06-10T09:34:36;25.00;99.90
64951;DHT22;51482;47.014;7.652;2023-06-10T09:37:02;24.50;99.90
64951;DHT22;51482;47.014;7.652;2023-06-10T09:39:27;24.70;99.90
64951;DHT22;51482;47.014;7.652;2023-06-10T09:41:53;25.10;99.90
64951;DHT22;51482;47.014;7.652;2023-06-10T09:44:20;25.60;99.90
64951;DHT22;51482;47.014;7.652;2023-06-10T09:46:47;26.00;99.90
64951;DHT22;51482;47.014;7.652;2023-06-10T09:49:13;26.20;99.90
64951;DHT22;51482;47.014;7.652;2023-06-10T09:51:52;26.90;99.90
64951;DHT22;51482;47.014;7.652;2023-06-10T09:54:19;27.30;99.90
64951;DHT22;51482;47.014;7.652;2023-06-10T09:56:49;27.90;99.90
64951;DHT22;51482;47.014;7.652;2023-06-10T09:59:15;27.70;99.90
64951;DHT22;51482;47.014;7.652;2023-06-10T10:01:41;28.20;99.90
64951;DHT22;51482;47.014;7.652;2023-06-10T10:04:07;28.10;99.90
64951;DHT22;51482;47.014;7.652;2023-06-10T10:06:33;28.60;99.90
64951;DHT22;51482;47.014;7.652;2023-06-10T10:08:59;27.80;99.90
64951;DHT22;51482;47.014;7.652;2023-06-10T10:11:25;28.10;99.90
64951;DHT22;51482;47.014;7.652;2023-06-10T10:13:52;28.00;99.90
64951;DHT22;51482;47.014;7.652;2023-06-10T10:16:37;28.30;99.90
64951;DHT22;51482;47.014;7.652;2023-06-10T10:19:10;29.00;99.90
64951;DHT22;51482;47.014;7.652;2023-06-10T10:21:47;29.20;99.90
64951;DHT22;51482;47.014;7.652;2023-06-10T10:24:21;29.60;99.90
64951;DHT22;51482;47.014;7.652;2023-06-10T10:26:48;29.60;98.60
64951;DHT22;51482;47.014;7.652;2023-06-10T10:29:23;30.00;98.70
64951;DHT22;51482;47.014;7.652;2023-06-10T10:31:51;30.10;97.20
64951;DHT22;51482;47.014;7.652;2023-06-10T10:34:24;29.60;97.60
64951;DHT22;51482;47.014;7.652;2023-06-10T10:36:55;29.30;96.40
64951;DHT22;51482;47.014;7.652;2023-06-10T10:39:21;28.70;97.20
64951;DHT22;51482;47.014;7.652;2023-06-10T10:41:47;28.40;97.20
64951;DHT22;51482;47.014;7.652;2023-06-10T10:44:14;28.50;97.00
64951;DHT22;51482;47.014;7.652;2023-06-10T10:46:45;29.30;97.20
64951;DHT22;51482;47.014;7.652;2023-06-10T10:49:14;29.60;95.10
64951;DHT22;51482;47.014;7.652;2023-06-10T10:52:01;30.20;96.20
64951;DHT22;51482;47.014;7.652;2023-06-10T10:54:34;30.40;95.50
64951;DHT22;51482;47.014;7.652;2023-06-10T10:59:46;30.80;91.40
64951;DHT22;51482;47.014;7.652;2023-06-10T11:02:18;30.30;93.00
64951;DHT22;51482;47.014;7.652;2023-06-10T11:04:47;29.80;92.50
64951;DHT22;51482;47.014;7.652;2023-06-10T11:07:13;29.60;90.80
64951;DHT22;51482;47.014;7.652;2023-06-10T11:09:58;29.00;90.90
64951;DHT22;51482;47.014;7.652;2023-06-10T11:12:25;29.00;91.40
64951;DHT22;51482;47.014;7.652;2023-06-10T11:14:54;29.00;92.60
64951;DHT22;51482;47.014;7.652;2023-06-10T11:17:21;28.60;92.80
64951;DHT22;51482;47.014;7.652;2023-06-10T11:19:46;28.60;93.40
64951;DHT22;51482;47.014;7.652;2023-06-10T11:22:16;28.50;94.20
64951;DHT22;51482;47.014;7.652;2023-06-10T11:24:47;28.10;96.40
64951;DHT22;51482;47.014;7.652;2023-06-10T11:27:23;28.40;94.80
64951;DHT22;51482;47.014;7.652;2023-06-10T11:32:33;28.40;95.10
64951;DHT22;51482;47.014;7.652;2023-06-10T11:34:59;29.10;93.80
64951;DHT22;51482;47.014;7.652;2023-06-10T11:37:24;29.50;92.50
64951;DHT22;51482;47.014;7.652;2023-06-10T11:39:56;30.20;92.40
64951;DHT22;51482;47.014;7.652;2023-06-10T11:42:22;30.60;91.40
64951;DHT22;51482;47.014;7.652;2023-06-10T11:44:52;30.80;88.00
64951;DHT22;51482;47.014;7.652;2023-06-10T11:47:19;30.80;90.30
64951;DHT22;51482;47.014;7.652;2023-06-10T11:49:45;31.20;87.40
64951;DHT22;51482;47.014;7.652;2023-06-10T11:52:11;31.20;85.70
64951;DHT22;51482;47.014;7.652;2023-06-10T11:54:37;31.40;87.60
64951;DHT22;51482;47.014;7.652;2023-06-10T11:57:03;31.60;84.50
64951;DHT22;51482;47.014;7.652;2023-06-10T11:59:29;31.40;78.60
64951;DHT22;51482;47.014;7.652;2023-06-10T12:01:56;31.40;81.20
64951;DHT22;51482;47.014;7.652;2023-06-10T12:04:21;31.90;81.40
64951;DHT22;51482;47.014;7.652;2023-06-10T12:06:54;32.30;86.20
64951;DHT22;51482;47.014;7.652;2023-06-10T12:09:21;31.70;75.30
64951;DHT22;51482;47.014;7.652;2023-06-10T12:12:01;31.10;78.50
64951;DHT22;51482;47.014;7.652;2023-06-10T12:14:53;30.80;84.00
64951;DHT22;51482;47.014;7.652;2023-06-10T12:17:34;30.90;83.20
64951;DHT22;51482;47.014;7.652;2023-06-10T12:20:07;30.90;80.90
64951;DHT22;51482;47.014;7.652;2023-06-10T12:22:41;30.10;77.10
64951;DHT22;51482;47.014;7.652;2023-06-10T12:25:07;30.40;76.60
64951;DHT22;51482;47.014;7.652;2023-06-10T12:27:34;30.50;77.60
64951;DHT22;51482;47.014;7.652;2023-06-10T12:30:02;30.60;75.00
64951;DHT22;51482;47.014;7.652;2023-06-10T12:32:43;31.00;77.70
64951;DHT22;51482;47.014;7.652;2023-06-10T12:35:10;31.00;73.80
64951;DHT22;51482;47.014;7.652;2023-06-10T12:37:37;30.90;74.50
64951;DHT22;51482;47.014;7.652;2023-06-10T12:40:05;31.00;74.60
64951;DHT22;51482;47.014;7.652;2023-06-10T12:42:37;30.60;72.50
64951;DHT22;51482;47.014;7.652;2023-06-10T12:45:04;30.70;71.30
64951;DHT22;51482;47.014;7.652;2023-06-10T12:47:31;30.90;69.00
64951;DHT22;51482;47.014;7.652;2023-06-10T12:49:58;30.90;67.50
64951;DHT22;51482;47.014;7.652;2023-06-10T12:52:25;30.90;70.30
64951;DHT22;51482;47.014;7.652;2023-06-10T12:54:50;31.40;69.60
64951;DHT22;51482;47.014;7.652;2023-06-10T12:57:17;31.10;66.20
64951;DHT22;51482;47.014;7.652;2023-06-10T12:59:42;31.20;69.40
64951;DHT22;51482;47.014;7.652;2023-06-10T13:02:15;31.40;71.00
64951;DHT22;51482;47.014;7.652;2023-06-10T13:04:43;32.20;67.30
64951;DHT22;51482;47.014;7.652;2023-06-10T13:07:09;32.50;67.00
64951;DHT22;51482;47.014;7.652;2023-06-10T13:09:36;32.50;70.00
64951;DHT22;51482;47.014;7.652;2023-06-10T13:12:01;32.10;66.20
64951;DHT22;51482;47.014;7.652;2023-06-10T13:14:27;32.30;66.40
64951;DHT22;51482;47.014;7.652;2023-06-10T13:16:54;32.20;66.50
64951;DHT22;51482;47.014;7.652;2023-06-10T13:19:20;32.10;62.50
64951;DHT22;51482;47.014;7.652;2023-06-10T13:21:49;31.40;59.80
64951;DHT22;51482;47.014;7.652;2023-06-10T13:24:14;32.00;62.70
64951;DHT22;51482;47.014;7.652;2023-06-10T13:26:40;31.80;65.00
64951;DHT22;51482;47.014;7.652;2023-06-10T13:29:06;32.00;62.10
64951;DHT22;51482;47.014;7.652;2023-06-10T13:31:33;32.20;64.00
64951;DHT22;51482;47.014;7.652;2023-06-10T13:33:59;32.00;60.00
64951;DHT22;51482;47.014;7.652;2023-06-10T13:36:24;31.50;62.90
64951;DHT22;51482;47.014;7.652;2023-06-10T13:38:50;31.70;61.60
64951;DHT22;51482;47.014;7.652;2023-06-10T13:41:15;31.00;61.70
64951;DHT22;51482;47.014;7.652;2023-06-10T13:43:41;30.70;64.70
64951;DHT22;51482;47.014;7.652;2023-06-10T13:46:07;30.60;62.90
64951;DHT22;51482;47.014;7.652;2023-06-10T13:48:32;30.50;65.20
64951;DHT22;51482;47.014;7.652;2023-06-10T13:50:59;30.60;61.40
64951;DHT22;51482;47.014;7.652;2023-06-10T13:53:25;30.70;60.80
64951;DHT22;51482;47.014;7.652;2023-06-10T13:55:51;30.90;61.40
64951;DHT22;51482;47.014;7.652;2023-06-10T13:58:16;30.90;58.50
64951;DHT22;51482;47.014;7.652;2023-06-10T14:00:42;30.90;60.30
64951;DHT22;51482;47.014;7.652;2023-06-10T14:03:08;31.30;59.50
64951;DHT22;51482;47.014;7.652;2023-06-10T14:05:33;31.50;59.60
64951;DHT22;51482;47.014;7.652;2023-06-10T14:07:59;32.10;58.30
64951;DHT22;51482;47.014;7.652;2023-06-10T14:10:25;31.70;57.50
64951;DHT22;51482;47.014;7.652;2023-06-10T14:12:51;31.60;58.20
64951;DHT22;51482;47.014;7.652;2023-06-10T14:15:17;31.80;58.10
64951;DHT22;51482;47.014;7.652;2023-06-10T14:17:42;32.10;58.20
64951;DHT22;51482;47.014;7.652;2023-06-10T14:20:08;31.30;56.90
64951;DHT22;51482;47.014;7.652;2023-06-10T14:22:37;30.90;55.40
64951;DHT22;51482;47.014;7.652;2023-06-10T14:25:02;30.60;57.90
64951;DHT22;51482;47.014;7.652;2023-06-10T14:27:28;30.70;58.40
64951;DHT22;51482;47.014;7.652;2023-06-10T14:29:54;31.00;59.60
64951;DHT22;51482;47.014;7.652;2023-06-10T14:32:19;30.90;59.50
64951;DHT22;51482;47.014;7.652;2023-06-10T14:34:45;31.30;59.40
64951;DHT22;51482;47.014;7.652;2023-06-10T14:37:12;30.70;58.90
64951;DHT22;51482;47.014;7.652;2023-06-10T14:39:38;31.10;58.50
64951;DHT22;51482;47.014;7.652;2023-06-10T14:42:04;30.90;57.80
64951;DHT22;51482;47.014;7.652;2023-06-10T14:44:30;31.00;56.00
64951;DHT22;51482;47.014;7.652;2023-06-10T14:46:56;31.10;53.50
64951;DHT22;51482;47.014;7.652;2023-06-10T14:49:22;31.30;55.80
64951;DHT22;51482;47.014;7.652;2023-06-10T14:51:47;31.50;55.10
64951;DHT22;51482;47.014;7.652;2023-06-10T14:54:15;31.50;54.40
64951;DHT22;51482;47.014;7.652;2023-06-10T14:56:41;31.90;55.40
64951;DHT22;51482;47.014;7.652;2023-06-10T14:59:06;31.30;54.10
64951;DHT22;51482;47.014;7.652;2023-06-10T15:01:32;31.10;53.60
64951;DHT22;51482;47.014;7.652;2023-06-10T15:03:58;30.70;54.60
64951;DHT22;51482;47.014;7.652;2023-06-10T15:06:23;31.30;55.90
64951;DHT22;51482;47.014;7.652;2023-06-10T15:08:49;31.40;55.70
64951;DHT22;51482;47.014;7.652;2023-06-10T15:11:15;31.30;55.90
64951;DHT22;51482;47.014;7.652;2023-06-10T15:13:41;31.80;56.30
64951;DHT22;51482;47.014;7.652;2023-06-10T15:16:06;31.50;55.00
64951;DHT22;51482;47.014;7.652;2023-06-10T15:18:33;31.50;55.00
64951;DHT22;51482;47.014;7.652;2023-06-10T15:20:58;31.20;55.50
64951;DHT22;51482;47.014;7.652;2023-06-10T15:23:24;31.20;53.70
64951;DHT22;51482;47.014;7.652;2023-06-10T15:25:50;31.30;54.40
64951;DHT22;51482;47.014;7.652;2023-06-10T15:28:15;31.60;55.00
64951;DHT22;51482;47.014;7.652;2023-06-10T15:30:41;31.30;53.20
64951;DHT22;51482;47.014;7.652;2023-06-10T15:33:06;31.30;51.80
64951;DHT22;51482;47.014;7.652;2023-06-10T15:35:32;31.30;51.90
64951;DHT22;51482;47.014;7.652;2023-06-10T15:37:58;31.40;52.70